Time;durP1;ratioP1;P1;durP2;ratioP2;P2;SDS_P1;SDS_P2;PMS_P1;PMS_P2;Temp;Humidity;BMP_temperature;BMP_pressure;BME280_temperature;BME280_humidity;BME280_pressure;Samples;Min_cycle;Max_cycle;Signal;HPM_P1;HPM_P2
2023/02/05 00:00:02;;;;;;;0.90;0.77;;;4.30;94.40;;;;;;5097453;28;20196;-67
2023/02/05 00:02:32;;;;;;;2.83;0.93;;;4.30;94.40;;;;;;5102857;28;20298;-67
2023/02/05 00:05:00;;;;;;;0.83;0.83;;;4.20;94.30;;;;;;5085915;28;20735;-66
2023/02/05 00:07:27;;;;;;;1.13;1.10;;;4.20;94.30;;;;;;5104169;28;20195;-65
2023/02/05 00:09:54;;;;;;;2.03;1.10;;;4.20;94.30;;;;;;5094495;28;20193;-66
2023/02/05 00:12:23;;;;;;;1.03;1.00;;;4.20;94.30;;;;;;5086081;28;20266;-66
2023/02/05 00:14:50;;;;;;;1.63;0.80;;;4.20;94.30;;;;;;5074207;28;20192;-66
2023/02/05 00:17:17;;;;;;;2.37;1.10;;;4.20;94.40;;;;;;5100942;28;20199;-66
2023/02/05 00:19:45;;;;;;;2.30;1.00;;;4.20;94.60;;;;;;5085709;28;20200;-66
2023/02/05 00:22:12;;;;;;;1.47;1.00;;;4.20;94.30;;;;;;5093254;28;20196;-66
2023/02/05 00:24:39;;;;;;;1.03;0.93;;;4.20;94.30;;;;;;5092380;28;20261;-65
2023/02/05 00:27:09;;;;;;;0.90;0.90;;;4.20;94.30;;;;;;5092595;28;20195;-65
2023/02/05 00:29:37;;;;;;;1.87;0.90;;;4.10;94.10;;;;;;5092708;28;20296;-66
2023/02/05 00:32:05;;;;;;;0.73;0.73;;;4.20;94.10;;;;;;5097591;28;20277;-66
2023/02/05 00:34:32;;;;;;;1.83;0.90;;;4.20;94.10;;;;;;5093983;28;20189;-66
2023/02/05 00:36:59;;;;;;;0.50;0.50;;;4.20;94.00;;;;;;5083152;28;20213;-66
2023/02/05 00:39:27;;;;;;;0.60;0.60;;;4.20;94.00;;;;;;5101742;28;20195;-66
2023/02/05 00:41:57;;;;;;;0.60;0.60;;;4.20;94.00;;;;;;5093482;28;20533;-66
2023/02/05 00:44:24;;;;;;;1.30;0.77;;;4.20;94.10;;;;;;5095225;28;20197;-66
2023/02/05 00:46:53;;;;;;;0.77;0.77;;;4.20;94.00;;;;;;5075808;28;20192;-67
2023/02/05 00:49:20;;;;;;;0.80;0.50;;;4.10;94.00;;;;;;5093823;28;20223;-66
2023/02/05 00:51:47;;;;;;;0.50;0.50;;;4.20;94.00;;;;;;5104262;28;20666;-66
2023/02/05 00:54:15;;;;;;;0.60;0.60;;;4.10;94.00;;;;;;5098098;28;20191;-66
2023/02/05 00:56:42;;;;;;;0.80;0.60;;;4.10;94.10;;;;;;5092078;28;20213;-66
2023/02/05 00:59:11;;;;;;;0.70;0.70;;;4.10;94.00;;;;;;5095437;28;20201;-65
2023/02/05 01:01:38;;;;;;;0.50;0.50;;;4.10;94.00;;;;;;5065630;28;20207;-66
2023/02/05 01:04:07;;;;;;;0.80;0.80;;;4.10;94.00;;;;;;5087385;28;20232;-65
2023/02/05 01:06:34;;;;;;;1.40;0.80;;;4.00;94.00;;;;;;5074066;28;20287;-66
2023/02/05 01:09:01;;;;;;;0.60;0.60;;;4.00;94.10;;;;;;5071439;28;20200;-66
2023/02/05 01:11:28;;;;;;;0.60;0.60;;;4.00;94.00;;;;;;5095535;28;20192;-66
2023/02/05 01:13:56;;;;;;;0.60;0.60;;;4.00;94.00;;;;;;5097353;28;20191;-65
2023/02/05 01:16:23;;;;;;;0.67;0.67;;;4.00;94.10;;;;;;5095777;28;20713;-66
2023/02/05 01:18:51;;;;;;;2.00;0.70;;;4.00;94.20;;;;;;5088250;28;20201;-66
2023/02/05 01:21:23;;;;;;;0.70;0.70;;;3.90;94.10;;;;;;5097748;28;20245;-66
2023/02/05 01:23:50;;;;;;;0.77;0.77;;;3.90;94.10;;;;;;5094712;28;20599;-66
2023/02/05 01:26:17;;;;;;;0.60;0.60;;;3.90;94.20;;;;;;5088792;28;20208;-65
2023/02/05 01:28:45;;;;;;;0.67;0.67;;;3.90;94.20;;;;;;5083012;28;20203;-64
2023/02/05 01:31:13;;;;;;;0.80;0.80;;;3.90;94.20;;;;;;5090864;28;20189;-64
2023/02/05 01:33:40;;;;;;;0.60;0.60;;;3.90;94.20;;;;;;5097487;28;20191;-66
2023/02/05 01:36:07;;;;;;;0.80;0.80;;;4.40;94.40;;;;;;5071551;28;20593;-65
2023/02/05 01:38:36;;;;;;;1.23;0.67;;;4.00;94.20;;;;;;5097512;28;20235;-65
2023/02/05 01:41:05;;;;;;;0.47;0.47;;;4.00;94.20;;;;;;5068634;28;20193;-65
2023/02/05 01:43:33;;;;;;;0.50;0.50;;;4.00;94.20;;;;;;5067829;28;20241;-65
2023/02/05 01:46:16;;;;;;;0.53;0.53;;;3.90;94.20;;;;;;5089293;28;20552;-65
2023/02/05 01:48:49;;;;;;;0.83;0.83;;;3.90;94.20;;;;;;5069168;28;20207;-65
2023/02/05 01:51:16;;;;;;;1.20;0.73;;;3.90;94.20;;;;;;5094427;28;20658;-64
2023/02/05 01:53:48;;;;;;;0.80;0.80;;;3.90;94.30;;;;;;5083284;28;20276;-65
2023/02/05 01:56:20;;;;;;;0.63;0.63;;;3.90;94.30;;;;;;5098985;28;20241;-66
2023/02/05 01:58:53;;;;;;;0.87;0.80;;;3.80;94.30;;;;;;5068206;28;20206;-66
2023/02/05 02:01:20;;;;;;;0.60;0.60;;;3.90;94.40;;;;;;5090597;28;20207;-66
2023/02/05 02:03:49;;;;;;;0.73;0.73;;;3.90;94.40;;;;;;5100957;28;20639;-67
2023/02/05 02:06:17;;;;;;;0.60;0.60;;;3.90;94.30;;;;;;5068040;28;20272;-67
2023/02/05 02:08:45;;;;;;;0.87;0.87;;;3.90;94.40;;;;;;5068387;28;20218;-67
2023/02/05 02:11:17;;;;;;;1.00;0.70;;;3.90;94.40;;;;;;5095841;28;20198;-67
2023/02/05 02:13:47;;;;;;;0.70;0.70;;;3.90;94.40;;;;;;5087066;28;20192;-67
2023/02/05 02:16:16;;;;;;;0.77;0.70;;;3.90;94.40;;;;;;5091579;28;20267;-67
2023/02/05 02:18:43;;;;;;;1.00;0.90;;;3.90;94.40;;;;;;5100382;28;20306;-67
2023/02/05 02:21:41;;;;;;;1.03;0.77;;;3.90;94.50;;;;;;5094643;28;20197;-67
2023/02/05 02:24:31;;;;;;;1.37;0.90;;;3.90;94.50;;;;;;5067855;28;20331;-66
2023/02/05 02:27:16;;;;;;;1.27;0.90;;;3.90;94.50;;;;;;5097718;28;20268;-66
2023/02/05 02:29:51;;;;;;;0.80;0.80;;;3.90;94.50;;;;;;5064322;28;20728;-66
2023/02/05 02:32:24;;;;;;;0.70;0.70;;;3.90;94.50;;;;;;5097144;28;20945;-66
2023/02/05 02:34:56;;;;;;;0.80;0.70;;;3.90;94.50;;;;;;5068640;28;20200;-66
2023/02/05 02:37:28;;;;;;;0.70;0.70;;;3.90;94.50;;;;;;5062448;28;20285;-66
2023/02/05 02:40:01;;;;;;;5.63;0.90;;;3.90;94.50;;;;;;5093582;28;20221;-66
2023/02/05 02:42:35;;;;;;;1.53;1.10;;;3.80;94.50;;;;;;5064309;28;20533;-66
2023/02/05 02:45:08;;;;;;;1.10;0.80;;;3.80;94.50;;;;;;5065261;28;20196;-66
2023/02/05 02:47:38;;;;;;;1.00;0.90;;;3.80;94.60;;;;;;5101601;28;20192;-65
2023/02/05 02:50:11;;;;;;;4.37;0.80;;;3.80;94.60;;;;;;5091685;28;20203;-65
2023/02/05 02:52:42;;;;;;;0.90;0.90;;;3.80;94.60;;;;;;5095413;28;20252;-65
2023/02/05 02:55:13;;;;;;;0.83;0.83;;;3.80;94.70;;;;;;5100167;28;20281;-66
2023/02/05 02:57:47;;;;;;;0.70;0.70;;;3.80;94.70;;;;;;5064714;28;20603;-64
2023/02/05 03:00:21;;;;;;;0.70;0.70;;;3.80;94.70;;;;;;5068959;28;20200;-66
2023/02/05 03:02:50;;;;;;;0.63;0.63;;;3.80;94.70;;;;;;5069534;28;20193;-66
2023/02/05 03:05:20;;;;;;;1.10;0.70;;;3.90;94.80;;;;;;5066724;28;20232;-65
2023/02/05 03:07:52;;;;;;;2.20;0.77;;;3.90;94.80;;;;;;5092117;28;20228;-66
2023/02/05 03:10:25;;;;;;;0.77;0.77;;;4.00;94.80;;;;;;5099386;28;20536;-66
2023/02/05 03:12:54;;;;;;;3.33;1.00;;;3.90;94.80;;;;;;5063037;28;20707;-66
2023/02/05 03:15:22;;;;;;;1.37;0.70;;;3.90;94.80;;;;;;5097670;28;20206;-65
2023/02/05 03:17:52;;;;;;;1.10;0.80;;;3.90;94.80;;;;;;5076254;28;20705;-67
2023/02/05 03:20:25;;;;;;;6.30;0.97;;;3.90;94.80;;;;;;5081020;28;20640;-65
2023/02/05 03:22:52;;;;;;;1.83;1.17;;;3.90;94.80;;;;;;5097675;28;20195;-65
2023/02/05 03:25:22;;;;;;;1.77;1.00;;;3.90;94.80;;;;;;5093717;28;20220;-65
2023/02/05 03:27:53;;;;;;;3.20;1.10;;;3.90;94.80;;;;;;5068649;28;20194;-66
2023/02/05 03:30:28;;;;;;;1.57;0.90;;;4.00;94.90;;;;;;5069553;28;20219;-65
2023/02/05 03:33:03;;;;;;;2.00;1.30;;;4.00;94.90;;;;;;5084487;28;20193;-66
2023/02/05 03:35:38;;;;;;;2.90;1.50;;;4.00;94.90;;;;;;5071456;28;20891;-66
2023/02/05 03:38:28;;;;;;;2.60;1.47;;;4.00;94.90;;;;;;5096720;28;20232;-65
2023/02/05 03:41:00;;;;;;;2.50;1.70;;;4.00;95.20;;;;;;5067957;28;20567;-67
2023/02/05 03:43:40;;;;;;;5.57;2.17;;;4.00;94.90;;;;;;5070689;28;20199;-66
2023/02/05 03:46:17;;;;;;;6.60;2.40;;;4.10;95.00;;;;;;5094518;28;20198;-66
2023/02/05 03:49:02;;;;;;;4.90;2.77;;;4.10;95.00;;;;;;5070024;28;20818;-66
2023/02/05 03:51:38;;;;;;;3.53;2.63;;;4.10;95.00;;;;;;5073963;28;20207;-66
2023/02/05 03:54:18;;;;;;;3.90;2.80;;;4.00;95.00;;;;;;5065624;28;20205;-67
2023/02/05 03:56:54;;;;;;;4.57;2.13;;;4.00;95.10;;;;;;5070685;28;20200;-66
2023/02/05 03:59:23;;;;;;;4.13;2.60;;;4.00;95.10;;;;;;5062798;28;20203;-66
2023/02/05 04:01:53;;;;;;;3.77;2.70;;;4.00;95.10;;;;;;5077334;28;20205;-66
2023/02/05 04:04:21;;;;;;;5.40;3.33;;;4.00;95.10;;;;;;5072404;28;20298;-66
2023/02/05 04:06:51;;;;;;;5.57;3.03;;;4.10;95.50;;;;;;5103807;28;20210;-67
2023/02/05 04:09:18;;;;;;;5.87;3.00;;;4.00;95.10;;;;;;5067347;28;20196;-67
2023/02/05 04:11:46;;;;;;;4.73;2.40;;;4.00;95.10;;;;;;5074275;28;20287;-66
2023/02/05 04:14:13;;;;;;;4.50;3.10;;;4.00;95.10;;;;;;5072371;28;20272;-66
2023/02/05 04:16:43;;;;;;;5.07;2.90;;;3.90;95.20;;;;;;5067445;28;20193;-66
2023/02/05 04:19:12;;;;;;;4.80;3.00;;;3.90;95.30;;;;;;5072305;28;20699;-65
2023/02/05 04:21:40;;;;;;;5.93;3.00;;;3.90;95.30;;;;;;5067611;28;20191;-66
2023/02/05 04:24:08;;;;;;;6.17;3.50;;;3.90;95.30;;;;;;5079079;28;20240;-65
2023/02/05 04:26:35;;;;;;;5.37;3.57;;;3.90;95.30;;;;;;5071899;28;20203;-66
2023/02/05 04:29:05;;;;;;;6.63;3.53;;;3.80;95.30;;;;;;5079324;28;20290;-65
2023/02/05 04:31:38;;;;;;;4.63;3.37;;;3.80;95.40;;;;;;5072681;28;20732;-66
2023/02/05 04:34:06;;;;;;;6.20;3.17;;;3.80;95.30;;;;;;5107816;28;20214;-66
2023/02/05 04:36:34;;;;;;;6.47;3.60;;;3.80;95.40;;;;;;5073186;28;20217;-66
2023/02/05 04:39:02;;;;;;;7.47;3.23;;;3.80;95.30;;;;;;5078114;28;20325;-66
2023/02/05 04:41:30;;;;;;;6.87;3.63;;;3.80;95.30;;;;;;5083418;28;20261;-66
2023/02/05 04:43:57;;;;;;;3.93;2.60;;;3.80;95.30;;;;;;5106866;28;20200;-66
2023/02/05 04:46:24;;;;;;;6.37;3.33;;;3.80;95.30;;;;;;5097137;28;20193;-66
2023/02/05 04:48:51;;;;;;;5.67;3.03;;;3.80;95.30;;;;;;5104068;28;20726;-66
2023/02/05 04:51:18;;;;;;;5.43;3.13;;;3.80;95.30;;;;;;5104420;28;20218;-66
2023/02/05 04:53:47;;;;;;;4.97;3.00;;;3.80;95.30;;;;;;5101157;28;20198;-66
2023/02/05 04:56:16;;;;;;;6.80;2.90;;;3.80;95.30;;;;;;5089025;28;20714;-65
2023/02/05 04:58:44;;;;;;;5.60;3.07;;;3.80;95.30;;;;;;5100410;28;20206;-66
2023/02/05 05:01:13;;;;;;;5.93;3.30;;;3.80;95.30;;;;;;5103075;28;20194;-66
2023/02/05 05:03:40;;;;;;;6.67;3.10;;;3.80;95.20;;;;;;5099664;28;20195;-66
2023/02/05 05:06:08;;;;;;;7.10;3.73;;;3.70;95.20;;;;;;5103688;28;20227;-66
2023/02/05 05:08:35;;;;;;;5.17;3.50;;;3.70;95.20;;;;;;5073452;28;20200;-66
2023/02/05 05:11:08;;;;;;;5.20;3.23;;;3.70;95.20;;;;;;5095966;28;20195;-66
2023/02/05 05:13:36;;;;;;;5.17;3.80;;;3.70;95.20;;;;;;5103094;28;20195;-66
2023/02/05 05:16:04;;;;;;;8.07;4.50;;;3.60;95.10;;;;;;5094215;28;20219;-66
2023/02/05 05:18:32;;;;;;;7.80;4.30;;;3.60;95.10;;;;;;5097516;28;20207;-66
2023/02/05 05:20:59;;;;;;;6.03;4.17;;;3.60;95.10;;;;;;5101991;28;20529;-66
2023/02/05 05:23:26;;;;;;;8.27;4.87;;;3.60;95.00;;;;;;5098668;28;20187;-66
2023/02/05 05:25:53;;;;;;;8.67;4.87;;;3.60;94.90;;;;;;5067494;28;20197;-67
2023/02/05 05:28:22;;;;;;;5.20;3.73;;;3.50;94.80;;;;;;5103259;28;20279;-66
2023/02/05 05:30:49;;;;;;;7.37;4.23;;;3.50;94.90;;;;;;5098111;28;20215;-66
2023/02/05 05:33:17;;;;;;;8.80;4.40;;;3.40;94.80;;;;;;5103040;28;20208;-67
2023/02/05 05:35:46;;;;;;;7.97;4.60;;;3.30;94.70;;;;;;5098028;28;20690;-67
2023/02/05 05:38:13;;;;;;;6.73;4.10;;;3.30;94.70;;;;;;5094842;28;20208;-66
2023/02/05 05:46:10;;;;;;;7.53;4.40;;;3.20;94.80;;;;;;5089795;28;20199;-67
2023/02/05 05:48:37;;;;;;;7.40;3.80;;;3.10;94.80;;;;;;5101916;28;20256;-66
2023/02/05 05:51:05;;;;;;;6.70;4.10;;;3.10;94.90;;;;;;5104888;28;20235;-67
2023/02/05 05:53:32;;;;;;;6.40;3.90;;;3.10;94.90;;;;;;5100360;28;20280;-67
2023/02/05 05:55:59;;;;;;;6.93;4.03;;;3.10;94.90;;;;;;5097900;28;20190;-67
2023/02/05 05:58:28;;;;;;;7.03;3.67;;;3.10;94.90;;;;;;5096147;28;20205;-67
2023/02/05 06:00:55;;;;;;;7.30;4.23;;;3.10;94.90;;;;;;5101356;28;20199;-66
2023/02/05 06:03:22;;;;;;;6.23;3.73;;;3.10;94.90;;;;;;5070180;28;20199;-66
2023/02/05 06:05:50;;;;;;;8.23;4.30;;;3.10;94.90;;;;;;5102660;28;20723;-65
2023/02/05 06:08:17;;;;;;;6.47;4.03;;;3.10;94.90;;;;;;5095316;28;20658;-65
2023/02/05 06:10:44;;;;;;;9.13;3.93;;;3.00;94.90;;;;;;5064196;28;20295;-66
2023/02/05 06:13:11;;;;;;;7.13;3.97;;;3.00;95.00;;;;;;5105162;28;20218;-66
2023/02/05 06:15:40;;;;;;;6.37;4.10;;;3.00;94.90;;;;;;5091359;28;21030;-66
2023/02/05 06:18:07;;;;;;;7.00;4.37;;;3.10;95.00;;;;;;5098144;28;20204;-66
2023/02/05 06:20:34;;;;;;;6.03;4.00;;;3.00;94.90;;;;;;5098598;28;20197;-66
2023/02/05 06:23:01;;;;;;;6.50;3.60;;;3.00;94.90;;;;;;5101743;28;20278;-66
2023/02/05 06:25:29;;;;;;;10.43;4.47;;;3.00;94.90;;;;;;5096955;28;20192;-66
2023/02/05 06:27:56;;;;;;;7.53;4.43;;;3.00;94.90;;;;;;5102509;28;20673;-66
2023/02/05 06:30:23;;;;;;;6.23;3.93;;;3.00;94.90;;;;;;5070501;28;20201;-66
2023/02/05 06:32:52;;;;;;;6.37;3.80;;;3.00;94.90;;;;;;5100379;28;20761;-66
2023/02/05 06:35:19;;;;;;;7.27;3.67;;;3.00;94.90;;;;;;5094894;28;20194;-66
2023/02/05 06:37:46;;;;;;;8.80;4.13;;;3.00;94.90;;;;;;5100155;28;20238;-66
2023/02/05 06:40:14;;;;;;;7.67;3.87;;;3.00;94.90;;;;;;5072752;28;20200;-65
2023/02/05 06:42:41;;;;;;;8.10;3.87;;;3.00;94.90;;;;;;5098495;28;20280;-65
2023/02/05 06:45:09;;;;;;;8.70;4.30;;;2.90;94.90;;;;;;5100837;28;20555;-66
2023/02/05 06:47:37;;;;;;;5.83;3.70;;;3.00;95.00;;;;;;5099651;28;20753;-65
2023/02/05 06:50:06;;;;;;;5.13;3.33;;;3.00;95.00;;;;;;5104651;28;20690;-65
2023/02/05 06:52:33;;;;;;;7.00;3.77;;;3.00;95.00;;;;;;5109687;28;20658;-66
2023/02/05 06:55:00;;;;;;;8.40;4.30;;;3.10;95.10;;;;;;5096635;28;20595;-64
2023/02/05 06:57:28;;;;;;;6.17;3.60;;;3.00;95.10;;;;;;5108302;28;20604;-64
2023/02/05 06:59:55;;;;;;;7.27;4.13;;;3.00;95.10;;;;;;5105469;28;20198;-65
2023/02/05 07:02:22;;;;;;;5.27;3.63;;;3.00;95.20;;;;;;5071933;28;20193;-65
2023/02/05 07:04:49;;;;;;;6.27;3.70;;;3.10;95.30;;;;;;5103741;28;20318;-65
2023/02/05 07:07:18;;;;;;;7.00;4.00;;;3.10;95.30;;;;;;5072382;28;20204;-65
2023/02/05 07:09:45;;;;;;;9.03;4.60;;;3.10;95.30;;;;;;5109193;28;20191;-64
2023/02/05 07:12:12;;;;;;;7.23;3.77;;;3.10;95.30;;;;;;5103583;28;21009;-64
2023/02/05 07:14:40;;;;;;;8.17;4.20;;;3.10;95.40;;;;;;5100445;28;20552;-65
2023/02/05 07:17:07;;;;;;;5.53;3.40;;;3.10;95.40;;;;;;5097416;28;20200;-65
2023/02/05 07:19:34;;;;;;;5.23;3.37;;;3.20;95.50;;;;;;5096795;28;20312;-65
2023/02/05 07:22:01;;;;;;;5.33;3.50;;;3.20;95.50;;;;;;5079800;28;20200;-65
2023/02/05 07:24:30;;;;;;;6.47;3.93;;;3.20;95.60;;;;;;5066963;28;20207;-67
2023/02/05 07:26:58;;;;;;;8.47;4.53;;;3.30;95.60;;;;;;5092149;28;20215;-66
2023/02/05 07:29:25;;;;;;;6.13;3.80;;;3.30;95.60;;;;;;5098996;28;20560;-65
2023/02/05 07:31:52;;;;;;;5.87;4.00;;;3.40;95.70;;;;;;5098873;28;20196;-66
2023/02/05 07:34:20;;;;;;;5.90;3.70;;;3.40;95.70;;;;;;5090847;28;20607;-66
2023/02/05 07:36:50;;;;;;;7.93;3.70;;;3.40;95.80;;;;;;5107004;28;20627;-66
2023/02/05 07:39:17;;;;;;;5.67;3.20;;;3.40;95.80;;;;;;5078644;28;20215;-64
2023/02/05 07:41:46;;;;;;;4.40;3.20;;;3.50;95.90;;;;;;5105352;28;20206;-64
2023/02/05 07:44:22;;;;;;;3.70;2.77;;;3.50;95.80;;;;;;5070581;28;20203;-64
2023/02/05 07:46:49;;;;;;;3.97;3.00;;;3.60;95.90;;;;;;5096851;28;20278;-65
2023/02/05 07:49:16;;;;;;;6.50;3.80;;;3.60;95.90;;;;;;5090022;28;20284;-66
2023/02/05 07:51:43;;;;;;;6.50;3.50;;;3.70;95.90;;;;;;5098400;28;20191;-65
2023/02/05 07:54:13;;;;;;;7.20;3.63;;;3.70;95.80;;;;;;5098654;28;20749;-66
2023/02/05 07:56:40;;;;;;;4.77;3.13;;;3.70;95.90;;;;;;5103356;28;20622;-66
2023/02/05 07:59:09;;;;;;;8.03;3.63;;;3.70;95.90;;;;;;5102052;28;20207;-66
2023/02/05 08:01:36;;;;;;;7.30;4.10;;;3.80;95.90;;;;;;5073274;28;20193;-66
2023/02/05 08:04:03;;;;;;;6.07;3.77;;;3.80;95.90;;;;;;5106786;28;21777;-65
2023/02/05 08:06:31;;;;;;;5.03;3.33;;;3.80;95.90;;;;;;5097652;28;20653;-65
2023/02/05 08:08:59;;;;;;;4.70;2.87;;;3.90;96.00;;;;;;5107195;28;20192;-64
2023/02/05 08:11:26;;;;;;;4.20;3.23;;;3.90;96.00;;;;;;5104503;28;20199;-65
2023/02/05 08:13:53;;;;;;;3.80;2.60;;;3.90;96.00;;;;;;5105282;28;20195;-64
2023/02/05 08:16:22;;;;;;;3.50;2.50;;;3.90;96.10;;;;;;5098012;28;20200;-65
2023/02/05 08:18:50;;;;;;;4.07;2.30;;;4.00;96.10;;;;;;5103194;28;20899;-66
2023/02/05 08:21:20;;;;;;;5.20;2.57;;;4.00;96.10;;;;;;5099044;28;20271;-65
2023/02/05 08:23:48;;;;;;;4.17;2.60;;;4.10;96.10;;;;;;5099324;28;20246;-65
2023/02/05 08:26:15;;;;;;;5.43;3.40;;;4.10;96.10;;;;;;5071371;28;20601;-65
2023/02/05 08:28:42;;;;;;;4.33;3.10;;;4.20;96.20;;;;;;5091513;28;20196;-65
2023/02/05 08:31:11;;;;;;;6.57;3.10;;;4.20;96.20;;;;;;5092642;28;20192;-64
2023/02/05 08:33:40;;;;;;;4.90;2.97;;;4.20;96.20;;;;;;5072685;28;21025;-66
2023/02/05 08:36:08;;;;;;;4.23;2.67;;;4.30;96.20;;;;;;5088889;28;20189;-66
2023/02/05 08:38:35;;;;;;;4.23;2.90;;;4.30;96.20;;;;;;5081650;28;20240;-66
2023/02/05 08:41:11;;;;;;;4.53;2.93;;;4.30;96.20;;;;;;5092405;28;20571;-66
2023/02/05 08:43:40;;;;;;;6.37;3.30;;;4.30;96.20;;;;;;5083816;28;20619;-66
2023/02/05 08:46:07;;;;;;;4.30;2.73;;;4.30;96.20;;;;;;5094576;28;20465;-66
2023/02/05 08:48:35;;;;;;;6.07;3.43;;;4.40;96.20;;;;;;5095743;28;20195;-65
2023/02/05 08:51:04;;;;;;;5.30;3.10;;;4.40;96.10;;;;;;5095007;28;20697;-65
2023/02/05 08:53:32;;;;;;;5.13;3.37;;;4.50;96.10;;;;;;5091789;28;20187;-65
2023/02/05 08:56:02;;;;;;;6.37;3.20;;;4.50;96.10;;;;;;5097062;28;20199;-66
2023/02/05 08:58:29;;;;;;;6.23;3.40;;;4.60;96.10;;;;;;5092750;28;20226;-66
2023/02/05 09:01:01;;;;;;;4.07;2.60;;;4.60;96.10;;;;;;5082299;28;20210;-66
2023/02/05 09:03:29;;;;;;;3.60;2.90;;;4.70;96.00;;;;;;5073900;28;20192;-66
2023/02/05 09:05:56;;;;;;;4.87;2.80;;;4.70;95.90;;;;;;5061998;28;20258;-66
2023/02/05 09:08:26;;;;;;;6.27;3.50;;;4.70;95.80;;;;;;5078393;28;20197;-67
2023/02/05 09:10:53;;;;;;;6.07;3.60;;;4.80;95.80;;;;;;5083363;28;21186;-66
2023/02/05 09:13:20;;;;;;;4.77;3.30;;;4.80;95.60;;;;;;5088955;28;20188;-66
2023/02/05 09:15:48;;;;;;;6.00;3.57;;;4.90;95.60;;;;;;5091110;28;20204;-66
2023/02/05 09:18:15;;;;;;;4.87;3.07;;;4.90;95.50;;;;;;5080389;28;20322;-66
2023/02/05 09:20:44;;;;;;;3.67;2.73;;;4.90;95.40;;;;;;5083854;28;20198;-66
2023/02/05 09:23:12;;;;;;;4.40;3.30;;;4.90;95.30;;;;;;5100637;28;20209;-67
2023/02/05 09:25:42;;;;;;;3.73;2.90;;;5.00;95.30;;;;;;5063305;28;20281;-66
2023/02/05 09:28:12;;;;;;;5.40;3.73;;;5.00;95.20;;;;;;5096784;28;20278;-65
2023/02/05 09:30:41;;;;;;;6.60;3.80;;;5.00;95.10;;;;;;5087194;28;20854;-66
2023/02/05 09:33:08;;;;;;;6.20;3.30;;;5.10;95.00;;;;;;5098906;28;20195;-66
2023/02/05 09:35:36;;;;;;;4.20;2.83;;;3.80;94.30;;;;;;5076485;28;20195;-66
2023/02/05 09:38:04;;;;;;;4.17;3.20;;;5.10;94.80;;;;;;5088967;28;20189;-66
2023/02/05 09:40:36;;;;;;;3.77;2.97;;;5.10;94.60;;;;;;5098255;28;20312;-66
2023/02/05 09:43:20;;;;;;;3.93;3.00;;;5.20;94.60;;;;;;5098224;28;20238;-68
2023/02/05 09:45:56;;;;;;;3.13;2.50;;;5.20;94.50;;;;;;5092134;28;20196;-67
2023/02/05 09:48:41;;;;;;;4.60;2.97;;;5.30;94.50;;;;;;5100057;28;20282;-65
2023/02/05 09:51:11;;;;;;;3.40;2.67;;;5.40;94.40;;;;;;5062374;28;20211;-66
2023/02/05 09:53:42;;;;;;;3.47;2.10;;;5.40;94.20;;;;;;5086878;28;20205;-66
2023/02/05 09:56:11;;;;;;;2.90;2.10;;;5.50;94.20;;;;;;5094835;28;20560;-66
2023/02/05 09:58:43;;;;;;;3.30;2.33;;;5.50;94.00;;;;;;5086792;28;20194;-65
2023/02/05 10:01:18;;;;;;;3.10;2.20;;;5.50;94.00;;;;;;5089539;28;20613;-67
2023/02/05 10:03:48;;;;;;;4.80;2.93;;;5.60;93.90;;;;;;5093842;28;20235;-66
2023/02/05 10:06:42;;;;;;;3.00;2.47;;;5.60;93.60;;;;;;5087305;28;20663;-66
2023/02/05 10:09:25;;;;;;;3.53;2.47;;;5.60;93.60;;;;;;5074669;28;20284;-66
2023/02/05 10:12:00;;;;;;;3.47;2.33;;;5.70;93.50;;;;;;5065671;28;20216;-66
2023/02/05 10:14:37;;;;;;;3.40;2.13;;;5.70;93.30;;;;;;5066595;28;20221;-66
2023/02/05 10:17:21;;;;;;;4.00;2.50;;;5.70;93.20;;;;;;5082010;28;20190;-66
2023/02/05 10:20:25;;;;;;;4.57;2.20;;;5.80;93.20;;;;;;5091801;28;20289;-67
2023/02/05 10:23:07;;;;;;;4.07;2.70;;;5.80;93.10;;;;;;5047877;28;20195;-67
2023/02/05 10:26:08;;;;;;;5.23;2.87;;;5.80;92.80;;;;;;5090623;28;20228;-67
2023/02/05 10:29:05;;;;;;;5.83;3.23;;;5.80;92.60;;;;;;5030531;28;20660;-67
2023/02/05 10:31:41;;;;;;;6.63;3.47;;;5.80;92.50;;;;;;5090913;28;20192;-67
2023/02/05 10:34:24;;;;;;;4.87;3.07;;;5.80;92.50;;;;;;5082006;28;20200;-67
2023/02/05 10:36:53;;;;;;;4.20;2.87;;;5.90;92.50;;;;;;5089194;28;20189;-67
2023/02/05 10:39:24;;;;;;;4.40;2.77;;;5.90;92.50;;;;;;5072867;28;20303;-67
2023/02/05 10:41:55;;;;;;;3.90;2.50;;;5.90;92.50;;;;;;5084753;28;20235;-67
2023/02/05 10:44:27;;;;;;;3.47;2.63;;;5.90;92.50;;;;;;5087350;28;20203;-67
2023/02/05 10:47:02;;;;;;;3.20;2.47;;;5.90;92.50;;;;;;5079214;28;20380;-68
2023/02/05 10:49:42;;;;;;;3.93;2.50;;;6.00;92.50;;;;;;5084803;28;20202;-67
2023/02/05 10:52:12;;;;;;;3.40;2.50;;;6.00;92.30;;;;;;5090373;28;20197;-66
2023/02/05 10:54:40;;;;;;;3.73;2.40;;;6.10;92.30;;;;;;5071448;28;20194;-66
2023/02/05 10:57:13;;;;;;;3.70;2.40;;;6.20;92.30;;;;;;5086189;28;20201;-66
2023/02/05 10:59:49;;;;;;;7.80;2.90;;;6.30;92.20;;;;;;5067774;28;20231;-66
2023/02/05 11:02:18;;;;;;;4.77;2.77;;;6.40;92.10;;;;;;5067031;28;20199;-66
2023/02/05 11:04:48;;;;;;;4.90;2.50;;;6.50;92.00;;;;;;5073072;28;20403;-66
2023/02/05 11:07:23;;;;;;;3.50;2.43;;;6.50;91.80;;;;;;5080426;28;20220;-66
2023/02/05 11:09:50;;;;;;;3.13;2.40;;;6.60;91.70;;;;;;5088638;28;20205;-67
2023/02/05 11:12:26;;;;;;;3.53;2.37;;;6.60;91.50;;;;;;5066703;28;20653;-67
2023/02/05 11:14:57;;;;;;;2.87;1.83;;;6.70;91.50;;;;;;5091967;28;20251;-67
2023/02/05 11:17:30;;;;;;;4.33;2.50;;;6.70;91.50;;;;;;5072051;28;20207;-67
2023/02/05 11:20:01;;;;;;;3.03;2.10;;;6.70;91.30;;;;;;5079354;28;20229;-66
2023/02/05 11:22:31;;;;;;;3.00;2.23;;;6.80;91.20;;;;;;5097432;28;20202;-66
2023/02/05 11:25:15;;;;;;;3.13;2.10;;;6.90;91.10;;;;;;5086467;28;20688;-66
2023/02/05 11:27:52;;;;;;;2.60;1.93;;;6.90;91.00;;;;;;5050668;28;20294;-66
2023/02/05 11:30:25;;;;;;;2.07;1.87;;;7.00;90.80;;;;;;5075064;28;20885;-66
2023/02/05 11:32:54;;;;;;;2.93;2.17;;;7.00;90.50;;;;;;5064676;28;20209;-66
2023/02/05 11:35:24;;;;;;;1.97;1.60;;;7.00;90.30;;;;;;5097442;28;20192;-66
2023/02/05 11:38:00;;;;;;;3.03;1.87;;;7.10;90.20;;;;;;5064601;28;20197;-66
2023/02/05 11:40:30;;;;;;;2.87;1.80;;;7.10;90.40;;;;;;5097468;28;20199;-66
2023/02/05 11:43:05;;;;;;;2.17;1.63;;;7.10;90.00;;;;;;5074458;28;20207;-66
2023/02/05 11:45:34;;;;;;;2.93;1.70;;;7.10;89.90;;;;;;5074064;28;20203;-67
2023/02/05 11:48:06;;;;;;;2.23;1.77;;;7.10;90.20;;;;;;5097381;28;20196;-66
2023/02/05 11:50:34;;;;;;;2.50;1.77;;;7.20;89.80;;;;;;5094720;28;20195;-66
2023/02/05 11:53:15;;;;;;;2.53;1.60;;;7.20;89.40;;;;;;5089273;28;20216;-66
2023/02/05 11:55:43;;;;;;;2.10;1.63;;;7.30;89.00;;;;;;5103619;28;20200;-67
2023/02/05 11:58:22;;;;;;;2.60;1.80;;;7.30;88.70;;;;;;5087761;28;20201;-66
2023/02/05 12:00:52;;;;;;;1.50;1.40;;;7.30;88.00;;;;;;5094756;28;20847;-67
2023/02/05 12:03:22;;;;;;;2.17;1.27;;;7.30;87.90;;;;;;5088318;28;20196;-67
2023/02/05 12:05:54;;;;;;;1.67;1.23;;;7.30;87.30;;;;;;5080794;28;20667;-67
2023/02/05 12:08:33;;;;;;;1.30;1.30;;;7.30;87.20;;;;;;5098589;28;20200;-68
2023/02/05 12:11:13;;;;;;;1.57;1.17;;;7.40;86.30;;;;;;5101529;28;20543;-66
2023/02/05 12:13:50;;;;;;;1.03;0.90;;;7.30;85.40;;;;;;5096234;28;20195;-66
2023/02/05 12:16:34;;;;;;;0.97;0.87;;;7.30;85.30;;;;;;5094888;28;20208;-66
2023/02/05 12:19:15;;;;;;;0.93;0.90;;;7.30;85.20;;;;;;5088363;28;20188;-66
2023/02/05 12:21:49;;;;;;;1.53;1.43;;;7.30;84.90;;;;;;5097088;28;20681;-67
2023/02/05 12:24:47;;;;;;;2.57;1.80;;;7.20;84.10;;;;;;5092064;28;20197;-66
2023/02/05 12:27:27;;;;;;;2.03;1.50;;;7.20;83.90;;;;;;5087968;28;20238;-67
2023/02/05 12:30:30;;;;;;;1.73;1.37;;;7.10;83.60;;;;;;5098512;28;20184;-66
2023/02/05 12:33:16;;;;;;;0.80;0.80;;;7.10;83.70;;;;;;5078579;28;20205;-67
2023/02/05 12:35:58;;;;;;;0.90;0.90;;;7.10;83.10;;;;;;5091457;28;20196;-67
2023/02/05 12:38:37;;;;;;;1.70;0.73;;;7.10;82.70;;;;;;5103565;28;20195;-67
2023/02/05 12:41:18;;;;;;;1.30;0.83;;;7.10;82.20;;;;;;5084754;28;20200;-67
2023/02/05 12:43:48;;;;;;;1.50;0.70;;;7.10;81.40;;;;;;5097009;28;21040;-67
2023/02/05 12:46:32;;;;;;;0.60;0.60;;;7.20;80.70;;;;;;5096626;28;20192;-67
2023/02/05 12:49:18;;;;;;;1.50;0.70;;;7.20;80.90;;;;;;5099028;28;20723;-67
2023/02/05 12:52:06;;;;;;;1.00;0.70;;;7.20;80.70;;;;;;5072672;28;20223;-68
2023/02/05 12:54:55;;;;;;;0.43;0.43;;;7.30;80.80;;;;;;5084140;28;20205;-67
2023/02/05 12:57:26;;;;;;;1.00;0.80;;;7.30;81.80;;;;;;5095026;28;20187;-67
2023/02/05 12:59:58;;;;;;;0.87;0.60;;;7.20;80.50;;;;;;5096349;28;20195;-67
2023/02/05 13:02:33;;;;;;;1.20;0.97;;;7.10;80.20;;;;;;5096579;28;20757;-68
2023/02/05 13:05:12;;;;;;;1.00;0.60;;;7.10;80.40;;;;;;5096958;28;21018;-67
2023/02/05 13:07:45;;;;;;;0.60;0.60;;;7.00;81.10;;;;;;5095997;28;20318;-67
2023/02/05 13:10:18;;;;;;;0.60;0.60;;;7.00;80.40;;;;;;5096095;28;20215;-67
2023/02/05 13:12:49;;;;;;;1.87;0.60;;;6.90;81.10;;;;;;5093451;28;20192;-67
2023/02/05 13:15:19;;;;;;;0.60;0.50;;;6.90;80.30;;;;;;5097058;28;20183;-67
2023/02/05 13:17:56;;;;;;;0.40;0.40;;;6.90;80.00;;;;;;5098966;28;20207;-67
2023/02/05 13:28:38;;;;;;;0.40;0.40;;;6.90;80.00;;;;;;5095613;28;20212;-67
2023/02/05 13:28:54;;;;;;;1.10;0.40;;;6.80;79.70;;;;;;5092711;28;20189;-66